Time;durP1;ratioP1;P1;durP2;ratioP2;P2;SDS_P1;SDS_P2;PMS_P1;PMS_P2;Temp;Humidity;BMP_temperature;BMP_pressure;BME280_temperature;BME280_humidity;BME280_pressure;Samples;Min_cycle;Max_cycle;Signal;HPM_P1;HPM_P2
2023/09/04 00:02:05;;;;;;;3.83;3.53;;;;;;;17.43;78.91;98942.06;5008736;28;21028;-76
2023/09/04 00:04:32;;;;;;;4.20;3.90;;;;;;;17.39;78.96;98957.25;5006505;28;20453;-76
2023/09/04 00:06:58;;;;;;;5.17;4.00;;;;;;;17.32;79.47;98950.97;5008399;28;20952;-76
2023/09/04 00:09:27;;;;;;;3.80;3.50;;;;;;;17.34;79.60;98942.56;5009569;28;20541;-76
2023/09/04 00:11:53;;;;;;;4.30;3.93;;;;;;;17.26;79.96;98938.19;5008886;28;20500;-76
2023/09/04 00:14:20;;;;;;;3.80;3.50;;;;;;;17.26;79.71;98934.63;5007881;28;20453;-76
2023/09/04 00:16:47;;;;;;;3.87;3.67;;;;;;;17.25;79.54;98936.50;5008275;28;20464;-76
2023/09/04 00:19:13;;;;;;;4.20;3.90;;;;;;;17.10;80.08;98936.00;5007489;28;20453;-76
2023/09/04 00:21:40;;;;;;;5.40;4.27;;;;;;;17.21;79.81;98932.56;5009267;28;20461;-76
2023/09/04 00:24:07;;;;;;;11.13;4.40;;;;;;;17.29;79.19;98928.69;5008593;28;20954;-76
2023/09/04 00:26:36;;;;;;;4.40;4.10;;;;;;;17.28;79.24;98937.97;5006660;28;20532;-76
2023/09/04 00:29:03;;;;;;;4.70;4.30;;;;;;;17.13;79.73;98935.56;5007258;28;20511;-76
2023/09/04 00:31:30;;;;;;;4.57;4.23;;;;;;;17.17;79.57;98934.06;5008237;28;20480;-76
2023/09/04 00:33:56;;;;;;;4.40;4.10;;;;;;;17.17;78.41;98933.22;5007598;28;20490;-76
2023/09/04 00:36:23;;;;;;;5.13;4.73;;;;;;;17.03;78.75;98937.94;5007895;28;20841;-76
2023/09/04 00:38:50;;;;;;;4.97;4.57;;;;;;;17.14;78.79;98926.31;5009541;28;20977;-76
2023/09/04 00:41:18;;;;;;;4.97;4.67;;;;;;;17.08;79.07;98916.25;5006030;28;20505;-76
2023/09/04 00:43:47;;;;;;;4.93;4.53;;;;;;;17.02;79.49;98928.06;5005682;28;22168;-76
2023/09/04 00:46:14;;;;;;;5.07;4.67;;;;;;;17.05;79.16;98927.63;5008628;28;20575;-76
2023/09/04 00:48:41;;;;;;;4.40;4.10;;;;;;;17.01;78.92;98920.94;5008609;28;20480;-76
2023/09/04 00:51:08;;;;;;;5.13;4.53;;;;;;;17.18;77.90;98913.03;5006475;28;20840;-76
2023/09/04 00:53:37;;;;;;;5.20;4.80;;;;;;;17.18;78.25;98915.75;5008526;28;20551;-76
2023/09/04 00:56:04;;;;;;;5.57;5.07;;;;;;;16.89;80.09;98918.09;5007576;28;20895;-76
2023/09/04 00:58:31;;;;;;;4.63;4.33;;;;;;;16.84;80.54;98914.34;5006525;28;20499;-76
2023/09/04 01:01:00;;;;;;;5.33;4.93;;;;;;;16.67;81.05;98914.00;5007883;28;20556;-76
2023/09/04 01:03:28;;;;;;;4.20;3.90;;;;;;;16.46;80.60;98885.09;5006637;28;20453;-76
2023/09/04 01:05:54;;;;;;;4.13;3.83;;;;;;;16.69;80.76;98923.66;5005931;28;20520;-76
2023/09/04 01:08:21;;;;;;;4.83;4.40;;;;;;;16.85;79.86;98932.41;5006310;28;20544;-76
2023/09/04 01:10:57;;;;;;;5.37;4.97;;;;;;;16.88;79.68;98923.78;5006009;28;20555;-76
2023/09/04 01:13:28;;;;;;;5.50;5.00;;;;;;;16.73;80.12;98929.53;5007069;28;20625;-76
2023/09/04 01:15:55;;;;;;;5.03;4.60;;;;;;;16.77;79.50;98926.16;5006096;28;20540;-77
2023/09/04 01:18:24;;;;;;;5.40;4.90;;;;;;;16.58;80.25;98927.06;5006347;28;22317;-75
2023/09/04 01:21:01;;;;;;;4.73;4.33;;;;;;;16.66;80.03;98920.53;5008941;28;20477;-76
2023/09/04 01:23:28;;;;;;;5.00;4.60;;;;;;;16.72;79.45;98917.75;5007234;28;20504;-76
2023/09/04 01:26:00;;;;;;;4.80;4.40;;;;;;;16.57;80.57;98914.44;5008001;28;20539;-76
2023/09/04 01:28:31;;;;;;;4.90;4.60;;;;;;;16.69;80.31;98922.81;5006576;28;20461;-77
2023/09/04 01:31:03;;;;;;;4.60;4.30;;;;;;;16.63;80.24;98924.50;5007919;28;20504;-76
2023/09/04 01:33:33;;;;;;;4.60;4.30;;;;;;;16.65;79.78;98927.06;5008345;28;20463;-76
2023/09/04 01:36:04;;;;;;;4.90;4.50;;;;;;;16.70;79.53;98914.41;5009258;28;20551;-76
2023/09/04 01:38:32;;;;;;;5.17;4.77;;;;;;;16.69;79.44;98918.19;5010963;28;20464;-76
2023/09/04 01:40:58;;;;;;;4.63;4.33;;;;;;;16.89;78.79;98909.88;5007419;28;20571;-76
2023/09/04 01:43:26;;;;;;;5.60;4.80;;;;;;;16.74;78.96;98915.66;5012046;28;20551;-76
2023/09/04 01:45:52;;;;;;;5.43;4.97;;;;;;;16.66;79.66;98924.09;5011367;28;20992;-76
2023/09/04 01:48:19;;;;;;;4.87;4.50;;;;;;;16.70;79.60;98919.88;5009953;28;21872;-76
2023/09/04 01:50:46;;;;;;;4.73;4.33;;;;;;;16.66;79.96;98923.25;5009091;28;20481;-76
2023/09/04 01:53:14;;;;;;;4.97;4.57;;;;;;;16.68;80.31;98922.00;5004943;28;20484;-75
2023/09/04 01:55:41;;;;;;;4.10;3.80;;;;;;;16.55;81.03;98926.69;5008139;28;20457;-76
2023/09/04 01:58:08;;;;;;;5.53;5.03;;;;;;;16.65;80.31;98922.44;5009991;28;20493;-76
2023/09/04 02:00:34;;;;;;;4.87;4.57;;;;;;;16.58;80.78;98924.31;5005610;28;20575;-76
2023/09/04 02:03:01;;;;;;;5.20;4.80;;;;;;;16.47;81.17;98919.56;5004615;28;20457;-76
2023/09/04 02:05:28;;;;;;;5.23;4.73;;;;;;;16.52;80.56;98925.22;5004413;28;20586;-76
2023/09/04 02:07:55;;;;;;;5.37;4.97;;;;;;;16.46;80.95;98928.81;5008413;28;20464;-76
2023/09/04 02:10:26;;;;;;;5.93;5.23;;;;;;;16.39;80.94;98919.81;5010253;28;20504;-76
2023/09/04 02:12:55;;;;;;;5.57;5.17;;;;;;;16.51;80.16;98914.50;5009086;28;20544;-76
2023/09/04 02:15:22;;;;;;;5.07;4.67;;;;;;;16.42;80.67;98922.09;5011277;28;20464;-76
2023/09/04 02:17:48;;;;;;;5.33;4.83;;;;;;;16.40;80.65;98918.75;5010335;28;20512;-76
2023/09/04 02:20:16;;;;;;;5.10;4.70;;;;;;;16.34;80.35;98911.44;5010097;28;20513;-76
2023/09/04 02:22:43;;;;;;;4.87;4.57;;;;;;;16.41;79.76;98920.44;5009740;28;20465;-76
2023/09/04 02:25:10;;;;;;;5.43;5.00;;;;;;;16.39;79.72;98914.34;5008902;28;20471;-76
2023/09/04 02:27:38;;;;;;;5.40;5.00;;;;;;;16.29;80.10;98911.22;5009783;28;20965;-75
2023/09/04 02:30:07;;;;;;;5.50;5.03;;;;;;;16.22;80.85;98910.44;5010253;28;20508;-76
2023/09/04 02:32:34;;;;;;;5.63;5.27;;;;;;;16.27;80.49;98910.63;5011699;28;20529;-76
2023/09/04 02:35:01;;;;;;;5.20;4.80;;;;;;;16.32;80.30;98899.88;5005368;28;20548;-76
2023/09/04 02:37:28;;;;;;;5.10;4.80;;;;;;;16.23;80.68;98893.00;5009449;28;20460;-76
2023/09/04 02:39:56;;;;;;;5.27;4.90;;;;;;;16.14;81.05;98897.88;5010304;28;20475;-76
2023/09/04 02:42:23;;;;;;;6.20;5.60;;;;;;;16.08;81.29;98904.19;5008986;28;20463;-77
2023/09/04 02:44:51;;;;;;;5.60;5.20;;;;;;;15.84;81.04;98864.81;5008717;28;20460;-76
2023/09/04 02:47:18;;;;;;;7.53;5.07;;;;;;;16.08;81.13;98905.03;5009819;28;20996;-75
2023/09/04 02:49:45;;;;;;;6.20;5.60;;;;;;;16.01;81.68;98909.66;5004072;28;20481;-76
2023/09/04 02:52:12;;;;;;;5.33;4.93;;;;;;;16.00;81.83;98905.25;5010867;28;20445;-75
2023/09/04 02:54:38;;;;;;;5.57;5.17;;;;;;;16.11;81.17;98906.50;5009247;28;20453;-76
2023/09/04 02:57:05;;;;;;;4.90;4.60;;;;;;;16.03;81.87;98913.03;5008118;28;20568;-75
2023/09/04 02:59:34;;;;;;;5.27;4.90;;;;;;;15.96;82.08;98905.91;5009509;28;20551;-76
2023/09/04 03:02:02;;;;;;;5.10;4.80;;;;;;;15.91;82.44;98914.78;5006382;28;20480;-76
2023/09/04 03:04:28;;;;;;;6.20;5.13;;;;;;;15.94;81.97;98911.59;5007564;28;20618;-76
2023/09/04 03:06:55;;;;;;;5.70;5.23;;;;;;;15.89;82.33;98905.97;5010482;28;20480;-76
2023/09/04 03:09:22;;;;;;;4.90;4.50;;;;;;;15.98;81.74;98909.25;5008934;28;20999;-75
2023/09/04 03:11:49;;;;;;;5.63;5.23;;;;;;;15.95;82.01;98905.06;5009339;28;20968;-76
2023/09/04 03:14:16;;;;;;;5.87;5.40;;;;;;;15.89;81.32;98914.16;5007376;28;21576;-76
2023/09/04 03:16:43;;;;;;;5.63;5.17;;;;;;;15.92;81.43;98910.16;5004467;28;20548;-74
2023/09/04 03:19:11;;;;;;;6.00;5.60;;;;;;;15.89;81.20;98900.50;5007653;28;21023;-74
2023/09/04 03:21:38;;;;;;;5.37;4.97;;;;;;;15.89;80.67;98903.22;5010584;28;20453;-74
2023/09/04 03:24:05;;;;;;;6.20;5.70;;;;;;;15.88;80.49;98901.53;5009514;28;20507;-74
2023/09/04 03:26:32;;;;;;;6.40;5.80;;;;;;;15.79;81.02;98900.94;5008159;28;20584;-74
2023/09/04 03:28:58;;;;;;;5.83;5.23;;;;;;;15.73;81.07;98903.69;5008396;28;20460;-75
2023/09/04 03:31:25;;;;;;;5.87;5.37;;;;;;;15.72;81.44;98904.72;5005691;28;20845;-75
2023/09/04 03:33:53;;;;;;;5.70;5.30;;;;;;;15.74;81.54;98905.34;5005145;28;20587;-75
2023/09/04 03:36:21;;;;;;;5.50;5.00;;;;;;;15.77;81.27;98903.03;5008988;28;20488;-75
2023/09/04 03:38:48;;;;;;;6.60;6.07;;;;;;;15.63;82.10;98904.09;5009155;28;20449;-75
2023/09/04 03:41:15;;;;;;;5.97;5.47;;;;;;;15.62;82.25;98915.25;5005057;28;20543;-75
2023/09/04 03:43:41;;;;;;;5.40;5.00;;;;;;;15.58;82.56;98919.47;5004864;28;20489;-73
2023/09/04 03:46:12;;;;;;;5.73;5.30;;;;;;;15.43;83.17;98915.03;5007294;28;20513;-77
2023/09/04 03:48:39;;;;;;;6.10;5.60;;;;;;;15.40;83.41;98912.72;5006475;28;20810;-73
2023/09/04 03:51:06;;;;;;;5.60;5.20;;;;;;;15.40;83.44;98923.66;5004491;28;20480;-72
2023/09/04 03:53:34;;;;;;;5.83;5.43;;;;;;;15.49;82.63;98921.53;5005936;28;20457;-73
2023/09/04 03:56:05;;;;;;;5.93;5.50;;;;;;;15.42;82.71;98921.53;5008466;28;20548;-72
2023/09/04 03:58:32;;;;;;;6.27;5.77;;;;;;;15.28;83.48;98922.59;5005114;28;20461;-72
2023/09/04 04:00:59;;;;;;;6.03;5.33;;;;;;;15.25;83.96;98928.50;5008532;28;20481;-75
2023/09/04 04:03:26;;;;;;;5.60;5.00;;;;;;;15.38;83.29;98925.75;5008024;28;20540;-73
2023/09/04 04:05:52;;;;;;;6.00;5.40;;;;;;;15.40;83.24;98920.91;5004102;28;20983;-73
2023/09/04 04:08:19;;;;;;;6.50;6.00;;;;;;;15.46;83.02;98922.81;5009063;28;20450;-73
2023/09/04 04:10:47;;;;;;;6.20;5.70;;;;;;;15.39;83.07;98932.03;5006919;28;20484;-72
2023/09/04 04:13:14;;;;;;;6.03;5.50;;;;;;;15.43;83.18;98931.41;5003917;28;20480;-73
2023/09/04 04:15:41;;;;;;;7.00;6.30;;;;;;;15.30;83.58;98939.59;5007501;28;20492;-73
2023/09/04 04:18:09;;;;;;;6.50;6.00;;;;;;;15.33;83.49;98936.44;5009206;28;20485;-73
2023/09/04 04:20:36;;;;;;;6.50;5.90;;;;;;;15.37;82.94;98940.44;5007514;28;20477;-73
2023/09/04 04:23:03;;;;;;;6.10;5.60;;;;;;;15.38;82.83;98942.09;5005199;28;20468;-73
2023/09/04 04:25:30;;;;;;;6.37;5.87;;;;;;;15.42;82.66;98932.47;5005294;28;20462;-73
2023/09/04 04:27:58;;;;;;;5.83;5.43;;;;;;;15.38;82.62;98935.81;5008929;28;20493;-72
2023/09/04 04:30:25;;;;;;;6.00;5.60;;;;;;;15.53;82.02;98941.06;5003677;28;20483;-73
2023/09/04 04:32:52;;;;;;;6.60;6.10;;;;;;;15.37;82.41;98940.44;5004767;28;20461;-72
2023/09/04 04:35:19;;;;;;;6.30;5.83;;;;;;;15.33;82.67;98939.16;5002674;28;20576;-73
2023/09/04 04:37:46;;;;;;;6.70;6.20;;;;;;;15.43;81.93;98933.28;5002470;28;20527;-73
2023/09/04 04:40:13;;;;;;;6.43;5.93;;;;;;;15.35;82.11;98937.06;5003371;28;20552;-73
2023/09/04 04:42:40;;;;;;;6.60;6.00;;;;;;;15.34;82.42;98946.31;5006044;28;20449;-72
2023/09/04 04:45:09;;;;;;;6.10;5.60;;;;;;;15.53;81.58;98949.25;5006041;28;21481;-72
2023/09/04 04:47:36;;;;;;;6.20;5.70;;;;;;;15.48;81.16;98943.56;5007096;28;20507;-72
2023/09/04 04:50:03;;;;;;;6.43;5.93;;;;;;;15.49;81.20;98937.06;5007200;28;21028;-72
2023/09/04 04:52:30;;;;;;;6.60;6.10;;;;;;;15.28;82.02;98936.22;5008815;28;20515;-72
2023/09/04 04:54:57;;;;;;;7.03;6.40;;;;;;;15.33;81.92;98941.91;5008809;28;20453;-72
2023/09/04 04:57:24;;;;;;;6.20;5.80;;;;;;;15.46;81.51;98935.59;5004740;28;20484;-71
2023/09/04 04:59:51;;;;;;;6.50;6.10;;;;;;;15.37;81.81;98934.13;4991903;28;20907;-67
2023/09/04 05:02:21;;;;;;;6.90;6.30;;;;;;;15.33;81.75;98943.78;5002441;28;20461;-68
2023/09/04 05:04:48;;;;;;;5.80;5.40;;;;;;;15.31;82.45;98943.16;4985665;28;20457;-68
2023/09/04 05:07:15;;;;;;;6.67;6.17;;;;;;;15.32;82.19;98940.22;5003074;28;20488;-68
2023/09/04 05:09:42;;;;;;;7.03;6.43;;;;;;;15.17;82.86;98946.94;5001499;28;20484;-68
2023/09/04 05:12:09;;;;;;;7.03;6.43;;;;;;;15.16;82.96;98946.09;5008306;28;20457;-72
2023/09/04 05:14:36;;;;;;;7.00;6.30;;;;;;;15.21;82.83;98938.13;5005341;28;20465;-73
2023/09/04 05:17:03;;;;;;;7.00;6.30;;;;;;;15.24;82.70;98940.44;5008838;28;20603;-73
2023/09/04 05:19:31;;;;;;;6.40;5.90;;;;;;;15.12;83.17;98936.66;5002865;28;20512;-71
2023/09/04 05:21:57;;;;;;;6.87;6.27;;;;;;;15.24;82.83;98937.72;5009440;28;20943;-73
2023/09/04 05:24:24;;;;;;;6.20;5.70;;;;;;;15.28;82.75;98935.38;5006891;28;20465;-73
2023/09/04 05:26:51;;;;;;;6.70;6.20;;;;;;;15.30;82.70;98936.84;5010892;28;20587;-73
2023/09/04 05:29:18;;;;;;;6.67;6.17;;;;;;;15.35;82.28;98936.22;5011335;28;20547;-73
2023/09/04 05:31:45;;;;;;;6.37;5.87;;;;;;;15.45;82.07;98936.66;5005869;28;21156;-72
2023/09/04 05:34:12;;;;;;;7.30;6.60;;;;;;;15.42;82.18;98932.47;5007446;28;21246;-72
2023/09/04 05:36:39;;;;;;;6.53;6.03;;;;;;;15.57;81.42;98928.72;5007522;28;20975;-72
2023/09/04 05:39:06;;;;;;;6.57;5.97;;;;;;;15.55;82.07;98930.78;5007759;28;20472;-75
2023/09/04 05:41:33;;;;;;;6.17;5.77;;;;;;;15.50;82.23;98925.09;5009201;28;20452;-75
2023/09/04 05:44:00;;;;;;;6.57;6.07;;;;;;;15.71;81.36;98924.88;5005002;28;20456;-75
2023/09/04 05:46:27;;;;;;;7.40;6.70;;;;;;;15.71;81.43;98927.63;4990785;28;20493;-75
2023/09/04 05:48:53;;;;;;;6.90;6.37;;;;;;;15.70;81.47;98925.94;4999320;28;20505;-76
2023/09/04 05:51:20;;;;;;;7.80;7.20;;;;;;;15.77;81.06;98924.03;5000783;28;20471;-76
2023/09/04 05:53:49;;;;;;;7.10;6.50;;;;;;;15.92;80.79;98924.59;4992324;28;20591;-76
2023/09/04 05:56:16;;;;;;;6.33;5.83;;;;;;;16.01;80.12;98930.69;4991932;28;20945;-75
2023/09/04 05:58:44;;;;;;;5.77;5.30;;;;;;;16.05;79.92;98932.78;4984631;28;20566;-75
2023/09/04 06:01:11;;;;;;;7.33;6.73;;;;;;;16.15;79.52;98931.47;4983959;28;20560;-75
2023/09/04 06:03:38;;;;;;;6.73;6.13;;;;;;;16.29;79.29;98933.09;4980673;28;20457;-74
2023/09/04 06:06:05;;;;;;;6.20;5.70;;;;;;;16.54;78.36;98935.94;4999727;28;20507;-75
2023/09/04 06:08:33;;;;;;;7.20;6.30;;;;;;;16.74;77.61;98937.53;5003960;28;20499;-75
2023/09/04 06:11:02;;;;;;;5.90;5.43;;;;;;;16.91;76.37;98943.28;5001911;28;20540;-73
2023/09/04 06:13:29;;;;;;;5.80;5.40;;;;;;;17.20;74.85;98925.44;4990668;28;21025;-75
2023/09/04 06:15:56;;;;;;;5.30;4.90;;;;;;;17.60;73.40;98927.78;4996614;28;20496;-75
2023/09/04 06:18:23;;;;;;;6.10;5.60;;;;;;;18.39;70.72;98927.75;4995240;28;20461;-76
2023/09/04 06:20:51;;;;;;;5.33;4.93;;;;;;;19.07;67.29;98926.63;4998076;28;20465;-76
2023/09/04 06:23:18;;;;;;;5.70;5.30;;;;;;;19.26;67.02;98928.19;4955802;28;1211822;-75
2023/09/04 06:25:46;;;;;;;4.80;4.50;;;;;;;19.61;65.53;98927.44;4999901;28;20202;-75
2023/09/04 06:28:14;;;;;;;5.10;4.70;;;;;;;19.89;63.09;98930.28;4993836;28;20488;-74
2023/09/04 06:30:42;;;;;;;5.30;4.90;;;;;;;19.91;63.51;98919.88;5001756;28;20524;-82
2023/09/04 06:33:08;;;;;;;4.97;4.47;;;;;;;20.27;62.29;98931.66;4987388;28;20945;-76
2023/09/04 06:35:35;;;;;;;5.73;5.13;;;;;;;20.78;61.05;98934.41;4995970;28;20814;-81
2023/09/04 06:38:02;;;;;;;4.80;4.50;;;;;;;21.20;59.04;98927.69;4998962;28;20460;-76
2023/09/04 06:40:29;;;;;;;5.00;4.70;;;;;;;21.02;59.33;98934.28;4998830;28;20998;-76
2023/09/04 06:42:56;;;;;;;5.03;4.53;;;;;;;21.19;58.77;98934.28;5006105;28;20452;-75
2023/09/04 06:45:24;;;;;;;4.03;3.73;;;;;;;21.05;58.35;98933.78;5001408;28;21217;-77
2023/09/04 06:47:51;;;;;;;4.93;4.50;;;;;;;21.55;57.18;98928.31;5003379;28;21256;-78
2023/09/04 06:50:19;;;;;;;4.70;4.30;;;;;;;21.78;57.04;98928.09;4993124;28;20476;-77
2023/09/04 06:52:46;;;;;;;4.23;3.93;;;;;;;22.03;55.88;98907.56;5000235;28;20583;-76
2023/09/04 06:55:13;;;;;;;4.37;4.07;;;;;;;21.78;56.49;98916.25;5000584;28;20591;-77
2023/09/04 06:57:39;;;;;;;4.67;4.27;;;;;;;21.72;56.49;98918.13;5002755;28;20456;-76
2023/09/04 07:00:09;;;;;;;4.63;4.33;;;;;;;21.49;57.06;98909.19;4996093;28;20484;-77
2023/09/04 07:02:37;;;;;;;4.80;4.27;;;;;;;21.45;57.00;98917.94;5002010;28;20548;-77
2023/09/04 07:05:05;;;;;;;5.00;4.60;;;;;;;21.47;57.02;98912.19;5002737;28;20472;-77
2023/09/04 07:07:35;;;;;;;4.40;3.90;;;;;;;21.59;57.11;98906.59;5003291;28;20523;-77
2023/09/04 07:10:03;;;;;;;5.20;4.80;;;;;;;22.13;55.88;98916.78;4997231;28;21443;-77
2023/09/04 07:12:31;;;;;;;4.80;4.40;;;;;;;22.45;54.96;98911.41;5000180;28;21564;-77
2023/09/04 07:14:58;;;;;;;4.53;4.23;;;;;;;22.96;53.49;98911.16;5006159;28;20547;-77
2023/09/04 07:17:24;;;;;;;4.67;3.63;;;;;;;23.31;51.72;98907.91;4996793;28;20456;-77
2023/09/04 07:19:52;;;;;;;3.93;3.63;;;;;;;23.38;51.70;98917.66;4999975;28;20481;-77
2023/09/04 07:22:19;;;;;;;4.47;4.13;;;;;;;23.45;51.03;98909.09;4994731;28;20704;-77
2023/09/04 07:24:46;;;;;;;5.00;3.83;;;;;;;23.74;50.54;98921.53;4995879;28;20454;-77
2023/09/04 07:27:13;;;;;;;4.60;3.83;;;;;;;23.66;50.58;98910.97;4999345;28;21036;-77
2023/09/04 07:29:40;;;;;;;4.37;3.97;;;;;;;23.90;48.94;98914.16;5002882;28;20600;-76
2023/09/04 07:32:06;;;;;;;3.80;3.50;;;;;;;23.42;49.30;98909.63;4987065;28;20453;-76
2023/09/04 07:34:34;;;;;;;3.80;3.50;;;;;;;23.22;49.79;98907.53;4980173;28;20974;-76
2023/09/04 07:37:02;;;;;;;9.10;4.90;;;;;;;23.34;51.07;98916.50;4978905;28;20460;-76
2023/09/04 07:39:29;;;;;;;4.17;3.87;;;;;;;22.99;50.29;98916.16;5004322;28;20472;-77
2023/09/04 07:41:56;;;;;;;4.30;3.90;;;;;;;23.11;50.94;98908.53;4989473;28;20595;-77
2023/09/04 07:44:23;;;;;;;4.33;4.03;;;;;;;23.71;49.50;98910.19;4986051;28;20512;-77
2023/09/04 07:46:50;;;;;;;4.43;4.13;;;;;;;23.35;50.83;98920.09;4995323;28;21026;-76
2023/09/04 07:49:17;;;;;;;4.03;3.73;;;;;;;23.86;49.92;98920.50;5003086;28;20485;-77
2023/09/04 07:51:44;;;;;;;3.83;3.60;;;;;;;24.04;48.13;98915.34;4998299;28;20496;-76
2023/09/04 07:54:12;;;;;;;4.17;3.97;;;;;;;23.57;49.98;98914.50;5003542;28;20481;-77
2023/09/04 07:56:39;;;;;;;3.93;3.60;;;;;;;23.80;50.26;98914.09;5000244;28;20469;-76
2023/09/04 07:59:06;;;;;;;3.70;3.50;;;;;;;24.17;49.17;98911.28;4994729;28;20489;-77
2023/09/04 08:01:33;;;;;;;4.57;4.20;;;;;;;24.56;47.92;98908.16;4987014;28;20606;-77
2023/09/04 08:04:01;;;;;;;3.70;3.50;;;;;;;24.34;48.91;98923.03;4990568;28;20534;-77
2023/09/04 08:06:29;;;;;;;4.27;4.03;;;;;;;24.41;48.89;98922.75;4988428;28;29552;-77
2023/09/04 08:08:55;;;;;;;4.03;3.73;;;;;;;24.53;48.64;98920.59;5003780;28;20554;-77
2023/09/04 08:11:23;;;;;;;4.43;4.03;;;;;;;24.86;48.13;98915.72;5004569;28;21032;-77
2023/09/04 08:13:50;;;;;;;3.83;3.63;;;;;;;25.34;46.04;98915.22;5003883;28;20610;-77
2023/09/04 08:16:17;;;;;;;4.30;4.00;;;;;;;25.82;44.89;98910.25;4989293;28;20825;-77
2023/09/04 08:18:44;;;;;;;4.10;3.80;;;;;;;25.68;44.91;98903.59;4956114;28;20505;-77
2023/09/04 08:21:11;;;;;;;4.10;3.80;;;;;;;25.05;47.26;98922.41;4970575;28;21186;-77
2023/09/04 08:23:38;;;;;;;4.40;4.10;;;;;;;25.14;46.53;98915.22;4999937;28;20479;-77
2023/09/04 08:26:06;;;;;;;3.60;3.40;;;;;;;25.52;45.77;98913.03;4993948;28;20492;-77
2023/09/04 08:28:34;;;;;;;3.97;3.50;;;;;;;26.01;44.49;98908.53;4985432;28;20504;-77
2023/09/04 08:31:01;;;;;;;3.83;3.63;;;;;;;25.56;45.72;98911.38;4995627;28;20540;-78
2023/09/04 08:33:28;;;;;;;4.13;3.83;;;;;;;25.78;45.34;98915.53;4995130;28;20460;-77
2023/09/04 08:35:55;;;;;;;3.70;3.40;;;;;;;25.68;45.66;98911.91;4996963;28;20461;-77
2023/09/04 08:38:22;;;;;;;4.50;4.20;;;;;;;25.75;45.62;98915.25;4983127;28;20480;-77
2023/09/04 08:40:49;;;;;;;4.13;3.90;;;;;;;25.90;45.13;98912.47;4995941;28;20931;-80
2023/09/04 08:43:17;;;;;;;3.93;3.63;;;;;;;26.75;43.75;98906.88;5002870;28;20467;-75
2023/09/04 08:45:45;;;;;;;4.40;4.17;;;;;;;26.31;44.33;98890.19;4988988;28;20465;-77
2023/09/04 08:48:13;;;;;;;4.00;3.70;;;;;;;26.04;45.00;98894.09;4994699;28;21719;-77
2023/09/04 08:50:41;;;;;;;4.17;3.90;;;;;;;25.94;45.01;98896.94;4993352;28;20457;-77
2023/09/04 08:53:08;;;;;;;4.20;3.90;;;;;;;26.22;44.50;98891.84;4990998;28;20888;-77
2023/09/04 08:55:35;;;;;;;3.90;3.60;;;;;;;26.85;43.00;98892.13;4982634;28;20566;-76
2023/09/04 08:58:03;;;;;;;4.13;3.83;;;;;;;26.65;43.34;98895.81;4994924;28;20599;-78
2023/09/04 09:00:30;;;;;;;4.33;3.53;;;;;;;26.86;42.53;98893.78;5002681;28;20464;-79
2023/09/04 09:03:00;;;;;;;4.27;3.97;;;;;;;27.08;43.03;98899.75;4994214;28;20456;-79
2023/09/04 09:05:27;;;;;;;3.60;3.30;;;;;;;27.49;41.91;98899.44;4995684;28;20548;-79
2023/09/04 09:07:54;;;;;;;4.33;4.03;;;;;;;27.67;41.00;98907.91;5004303;28;20539;-80
2023/09/04 09:10:23;;;;;;;4.17;3.87;;;;;;;27.21;41.68;98890.78;5004865;28;20461;-79
2023/09/04 09:12:50;;;;;;;3.87;3.67;;;;;;;27.33;41.62;98891.22;4992760;28;20465;-79
2023/09/04 09:15:18;;;;;;;4.10;3.80;;;;;;;27.63;39.78;98892.09;4995829;28;20460;-79
2023/09/04 09:17:55;;;;;;;3.77;3.57;;;;;;;27.78;39.72;98883.63;4991993;28;20462;-78
2023/09/04 09:20:33;;;;;;;3.77;3.57;;;;;;;27.23;39.85;98885.75;5002038;28;21127;-79
2023/09/04 09:23:00;;;;;;;3.73;3.53;;;;;;;27.64;39.84;98879.84;5005464;28;20465;-79
2023/09/04 09:25:28;;;;;;;3.83;3.63;;;;;;;27.69;38.28;98877.03;5001392;28;20464;-79
2023/09/04 09:27:59;;;;;;;3.70;3.50;;;;;;;27.87;38.85;98879.09;5003183;28;20563;-79
2023/09/04 09:30:30;;;;;;;3.87;3.50;;;;;;;27.18;40.67;98874.69;5004681;28;20461;-79
2023/09/04 09:32:59;;;;;;;3.63;3.43;;;;;;;27.60;39.71;98887.16;5002907;28;20497;-79
2023/09/04 09:35:26;;;;;;;3.60;3.40;;;;;;;27.95;39.42;98869.22;4998663;28;20455;-79
2023/09/04 09:37:55;;;;;;;4.00;3.70;;;;;;;27.87;40.53;98884.66;5003978;28;20492;-78
2023/09/04 09:40:22;;;;;;;3.47;3.23;;;;;;;27.08;39.29;98881.13;4997387;28;20469;-78
2023/09/04 09:42:49;;;;;;;5.10;3.70;;;;;;;26.90;39.02;98884.59;5002617;28;20872;-78
2023/09/04 09:45:16;;;;;;;3.40;3.20;;;;;;;27.21;38.97;98874.09;5002501;28;20937;-77
2023/09/04 09:47:43;;;;;;;3.40;3.20;;;;;;;26.98;39.22;98877.59;5002467;28;20457;-78
2023/09/04 09:50:10;;;;;;;3.67;3.37;;;;;;;27.41;39.31;98873.09;4996116;28;20588;-81
2023/09/04 09:52:37;;;;;;;3.60;3.30;;;;;;;27.68;38.81;98864.25;5002034;28;20489;-76
2023/09/04 09:55:06;;;;;;;3.40;3.10;;;;;;;27.56;38.33;98866.56;5005491;28;20465;-76
2023/09/04 09:57:34;;;;;;;3.30;3.10;;;;;;;27.49;38.01;98822.41;5007757;28;20445;-78
2023/09/04 10:00:02;;;;;;;3.20;3.00;;;;;;;28.03;37.14;98854.69;5000146;28;20465;-71
2023/09/04 10:02:29;;;;;;;3.90;3.60;;;;;;;28.45;36.71;98861.44;5005311;28;20460;-73
2023/09/04 10:04:56;;;;;;;3.00;2.80;;;;;;;28.43;36.70;98858.94;5008025;28;20501;-76
2023/09/04 10:07:27;;;;;;;6.03;4.10;;;;;;;28.19;37.21;98858.94;5004210;28;20486;-74
2023/09/04 10:10:02;;;;;;;3.40;3.20;;;;;;;28.19;36.65;98852.56;5004994;28;20604;-75
2023/09/04 10:12:34;;;;;;;3.37;3.17;;;;;;;27.95;37.42;98853.38;5005606;28;20456;-75
2023/09/04 10:15:02;;;;;;;3.67;3.37;;;;;;;27.99;36.96;98851.66;5006135;28;20457;-73
2023/09/04 10:17:35;;;;;;;3.13;2.83;;;;;;;27.88;37.19;98847.34;5000417;28;20472;-72
2023/09/04 10:20:04;;;;;;;3.43;3.23;;;;;;;28.38;36.54;98845.09;4998027;28;20965;-72
2023/09/04 10:22:35;;;;;;;4.47;3.43;;;;;;;29.13;35.97;98839.53;4995321;28;20461;-72
2023/09/04 10:25:04;;;;;;;3.40;3.10;;;;;;;28.73;35.36;98836.22;4992073;28;20645;-73
2023/09/04 10:27:36;;;;;;;3.90;3.50;;;;;;;29.01;35.23;98825.22;4990569;28;20957;-72
2023/09/04 10:30:06;;;;;;;3.40;3.10;;;;;;;29.28;34.32;98830.91;5003543;28;20499;-73
2023/09/04 10:32:33;;;;;;;3.37;3.17;;;;;;;29.21;34.08;98836.06;5004895;28;20465;-77
2023/09/04 10:35:01;;;;;;;3.23;3.03;;;;;;;29.80;34.09;98820.53;5002092;28;20457;-77
2023/09/04 10:37:30;;;;;;;3.00;2.80;;;;;;;30.22;33.48;98821.34;5001780;28;20460;-84
2023/09/04 10:39:58;;;;;;;2.90;2.70;;;;;;;30.35;32.80;98815.75;5003274;28;20464;-78
2023/09/04 10:42:27;;;;;;;3.57;3.27;;;;;;;30.84;31.92;98818.91;5009760;28;20457;-79
2023/09/04 10:44:56;;;;;;;3.50;3.20;;;;;;;30.85;31.51;98806.56;5009688;28;20512;-79
2023/09/04 10:47:23;;;;;;;3.53;3.33;;;;;;;30.88;30.62;98812.34;5007798;28;20522;-78
2023/09/04 10:49:50;;;;;;;3.17;2.97;;;;;;;31.17;29.34;98806.34;5006702;28;20519;-78
2023/09/04 10:52:17;;;;;;;3.20;3.00;;;;;;;30.80;30.25;98807.50;5007289;28;20452;-78
2023/09/04 10:54:44;;;;;;;3.43;3.23;;;;;;;30.87;30.98;98807.06;5007888;28;20805;-78
2023/09/04 10:57:12;;;;;;;2.93;2.73;;;;;;;30.78;30.90;98807.00;5006137;28;20488;-78
2023/09/04 11:00:03;;;;;;;3.80;3.50;;;;;;;31.17;29.62;98809.16;5003234;28;20491;-78
2023/09/04 11:02:32;;;;;;;3.00;2.80;;;;;;;30.31;31.88;98803.56;5000379;28;20953;-79
2023/09/04 11:04:59;;;;;;;3.70;3.03;;;;;;;30.55;30.43;98803.28;5008748;28;20445;-78
2023/09/04 11:07:31;;;;;;;3.40;3.20;;;;;;;31.18;28.85;98791.22;5008702;28;20449;-78
2023/09/04 11:10:03;;;;;;;3.10;2.90;;;;;;;30.96;29.68;98791.19;5003514;28;20505;-78
2023/09/04 11:12:34;;;;;;;3.37;3.07;;;;;;;31.02;29.96;98795.50;5006133;28;20520;-78
2023/09/04 11:15:06;;;;;;;4.03;3.73;;;;;;;30.11;31.91;98786.41;4990251;28;20465;-78
2023/09/04 11:17:33;;;;;;;3.00;2.80;;;;;;;30.08;30.31;98776.69;4993872;28;20488;-78
2023/09/04 11:20:00;;;;;;;3.00;2.80;;;;;;;30.43;30.91;98777.88;4987326;28;20461;-78
2023/09/04 11:22:27;;;;;;;3.60;3.30;;;;;;;29.84;31.07;98767.69;5002327;28;21758;-78
2023/09/04 11:24:55;;;;;;;3.60;3.27;;;;;;;29.65;29.90;98784.50;5002443;28;20886;-78
2023/09/04 11:27:22;;;;;;;4.23;3.00;;;;;;;29.05;31.26;98776.94;5008639;28;20453;-77
2023/09/04 11:29:49;;;;;;;3.80;3.60;;;;;;;29.41;30.55;98770.75;5007582;28;20564;-78
2023/09/04 11:32:18;;;;;;;3.47;3.27;;;;;;;29.99;31.95;98773.81;4994157;28;20457;-78
2023/09/04 11:34:46;;;;;;;2.90;2.70;;;;;;;30.27;30.60;98769.00;5004998;28;20493;-78
2023/09/04 11:37:13;;;;;;;3.60;3.00;;;;;;;30.94;30.22;98769.13;5005987;28;20461;-79